Time;durP1;ratioP1;P1;durP2;ratioP2;P2;SDS_P1;SDS_P2;PMS_P1;PMS_P2;Temp;Humidity;BMP_temperature;BMP_pressure;BME280_temperature;BME280_humidity;BME280_pressure;Samples;Min_cycle;Max_cycle;Signal;HPM_P1;HPM_P2
2022/08/29 00:01:07;;;;;;;2.03;1.50;;;;;;;;;;4990757;28;20081;-62
2022/08/29 00:03:34;;;;;;;3.78;1.80;;;;;;;;;;4991050;28;20137;-64
2022/08/29 00:05:59;;;;;;;6.38;2.03;;;;;;;;;;4992057;28;20057;-63
2022/08/29 00:08:25;;;;;;;7.97;1.90;;;;;;;;;;4991686;28;20064;-69
2022/08/29 00:10:50;;;;;;;3.80;1.65;;;;;;;;;;4989701;28;20093;-62
2022/08/29 00:13:16;;;;;;;3.25;1.77;;;;;;;;;;4994259;28;20403;-62
2022/08/29 00:15:42;;;;;;;3.60;1.60;;;;;;;;;;4985866;28;20097;-62
2022/08/29 00:18:07;;;;;;;5.30;1.98;;;;;;;;;;4993441;28;20082;-63
2022/08/29 00:20:35;;;;;;;5.20;1.77;;;;;;;;;;4991111;28;20074;-63
2022/08/29 00:23:02;;;;;;;2.83;1.67;;;;;;;;;;4991597;28;20030;-62
2022/08/29 00:25:29;;;;;;;3.88;1.67;;;;;;;;;;4992457;28;20044;-62
2022/08/29 00:27:54;;;;;;;4.45;1.65;;;;;;;;;;4991246;28;20479;-63
2022/08/29 00:30:20;;;;;;;5.35;1.95;;;;;;;;;;4991194;28;20030;-63
2022/08/29 00:32:46;;;;;;;3.22;1.88;;;;;;;;;;4993517;28;20823;-63
2022/08/29 00:35:15;;;;;;;6.05;2.05;;;;;;;;;;4992967;28;20034;-62
2022/08/29 00:37:41;;;;;;;3.85;1.80;;;;;;;;;;4989698;28;20084;-63
2022/08/29 00:40:11;;;;;;;4.35;2.05;;;;;;;;;;4989191;28;20042;-63
2022/08/29 00:42:37;;;;;;;5.60;2.13;;;;;;;;;;4990750;28;20088;-62
2022/08/29 00:45:06;;;;;;;5.75;2.10;;;;;;;;;;4992379;28;20072;-62
2022/08/29 00:47:35;;;;;;;6.20;1.85;;;;;;;;;;4991843;28;20391;-62
2022/08/29 00:50:03;;;;;;;4.82;2.10;;;;;;;;;;4991185;28;20031;-62
2022/08/29 00:52:36;;;;;;;5.60;2.00;;;;;;;;;;4989815;28;20049;-67
2022/08/29 00:55:08;;;;;;;3.47;2.00;;;;;;;;;;4983385;28;20033;-62
2022/08/29 00:57:34;;;;;;;5.35;1.98;;;;;;;;;;4991445;28;20030;-62
2022/08/29 01:00:00;;;;;;;5.13;1.85;;;;;;;;;;4990157;28;20386;-62
2022/08/29 01:02:27;;;;;;;3.85;1.85;;;;;;;;;;4989218;28;20533;-68
2022/08/29 01:04:53;;;;;;;4.68;1.75;;;;;;;;;;4990593;28;20045;-63
2022/08/29 01:07:19;;;;;;;3.35;1.90;;;;;;;;;;4992570;28;20379;-62
2022/08/29 01:09:45;;;;;;;5.93;2.00;;;;;;;;;;4992944;28;20034;-63
2022/08/29 01:12:15;;;;;;;4.22;2.00;;;;;;;;;;4990199;28;20034;-65
2022/08/29 01:14:49;;;;;;;2.60;1.90;;;;;;;;;;4985357;28;20041;-63
2022/08/29 01:17:21;;;;;;;4.40;2.08;;;;;;;;;;4991935;28;20125;-63
2022/08/29 01:20:11;;;;;;;4.53;1.80;;;;;;;;;;4990992;28;20034;-63
2022/08/29 01:22:46;;;;;;;6.18;2.13;;;;;;;;;;4978465;28;20037;-63
2022/08/29 01:25:18;;;;;;;4.00;1.90;;;;;;;;;;4990728;28;20042;-63
2022/08/29 01:27:49;;;;;;;4.22;1.98;;;;;;;;;;4984260;28;20052;-63
2022/08/29 01:30:15;;;;;;;;;;;;;;;;;;4982998;28;20533;-62
2022/08/29 01:32:40;;;;;;;4.45;2.13;;;;;;;;;;4990524;28;19996;-62
2022/08/29 01:35:07;;;;;;;5.63;2.10;;;;;;;;;;4991280;28;20398;-63
2022/08/29 01:37:35;;;;;;;6.85;2.30;;;;;;;;;;4989499;28;20068;-63
2022/08/29 01:40:01;;;;;;;7.00;2.30;;;;;;;;;;4989895;28;20431;-63
2022/08/29 01:42:27;;;;;;;5.18;2.00;;;;;;;;;;4987301;28;20035;-64
2022/08/29 01:44:56;;;;;;;3.88;2.00;;;;;;;;;;4983919;28;20026;-63
2022/08/29 01:47:31;;;;;;;4.63;2.30;;;;;;;;;;4987639;28;20070;-64
2022/08/29 01:49:56;;;;;;;4.85;2.30;;;;;;;;;;4991749;28;20173;-63
2022/08/29 01:52:22;;;;;;;5.15;2.20;;;;;;;;;;4990311;28;20450;-62
2022/08/29 01:54:48;;;;;;;4.55;2.08;;;;;;;;;;4990231;28;20034;-63
2022/08/29 01:57:15;;;;;;;4.63;2.45;;;;;;;;;;4990286;28;20042;-63
2022/08/29 01:59:41;;;;;;;5.63;2.22;;;;;;;;;;4984966;28;20046;-64
2022/08/29 02:02:11;;;;;;;4.25;2.15;;;;;;;;;;4986329;28;20042;-63
2022/08/29 02:04:39;;;;;;;9.25;2.35;;;;;;;;;;4986904;28;20043;-62
2022/08/29 02:07:05;;;;;;;5.97;2.17;;;;;;;;;;4990776;28;20044;-63
2022/08/29 02:09:30;;;;;;;6.55;2.40;;;;;;;;;;4989704;28;20030;-68
2022/08/29 02:11:57;;;;;;;4.28;2.08;;;;;;;;;;4990151;28;20117;-62
2022/08/29 02:14:23;;;;;;;5.45;2.22;;;;;;;;;;4990107;28;20356;-62
2022/08/29 02:16:49;;;;;;;5.30;2.20;;;;;;;;;;4989348;28;20787;-63
2022/08/29 02:19:16;;;;;;;4.95;2.22;;;;;;;;;;4991512;28;20084;-63
2022/08/29 02:21:42;;;;;;;3.53;2.15;;;;;;;;;;4991049;28;20467;-63
2022/08/29 02:24:07;;;;;;;6.88;2.30;;;;;;;;;;4986240;28;20274;-65
2022/08/29 02:26:33;;;;;;;4.50;2.33;;;;;;;;;;4980743;28;20472;-67
2022/08/29 02:29:00;;;;;;;6.47;2.20;;;;;;;;;;4983292;28;20454;-64
2022/08/29 02:31:26;;;;;;;5.32;2.30;;;;;;;;;;4987888;28;20549;-63
2022/08/29 02:33:52;;;;;;;4.55;2.40;;;;;;;;;;4990800;28;20038;-62
2022/08/29 02:36:19;;;;;;;5.82;2.38;;;;;;;;;;4990564;28;20030;-62
2022/08/29 02:38:44;;;;;;;6.28;2.22;;;;;;;;;;4991267;28;20090;-63
2022/08/29 02:41:10;;;;;;;5.38;2.30;;;;;;;;;;4989143;28;20068;-62
2022/08/29 02:43:35;;;;;;;5.15;2.42;;;;;;;;;;4991797;28;20030;-64
2022/08/29 02:46:01;;;;;;;5.85;2.70;;;;;;;;;;4990341;28;20529;-62
2022/08/29 02:48:27;;;;;;;8.05;2.65;;;;;;;;;;4989131;28;20058;-64
2022/08/29 02:50:54;;;;;;;5.55;2.35;;;;;;;;;;4988007;28;20025;-68
2022/08/29 02:53:23;;;;;;;7.00;2.40;;;;;;;;;;4991492;28;20062;-62
2022/08/29 02:55:50;;;;;;;5.13;2.45;;;;;;;;;;4988676;28;20026;-63
2022/08/29 02:58:17;;;;;;;6.05;2.63;;;;;;;;;;4990282;28;20055;-63
2022/08/29 03:00:42;;;;;;;6.78;2.33;;;;;;;;;;4986672;28;20046;-63
2022/08/29 03:03:07;;;;;;;6.93;2.53;;;;;;;;;;4990642;28;20088;-63
2022/08/29 03:05:35;;;;;;;6.10;2.30;;;;;;;;;;4992445;28;20110;-69
2022/08/29 03:08:03;;;;;;;7.22;2.55;;;;;;;;;;4994236;28;20114;-63
2022/08/29 03:10:29;;;;;;;8.00;2.70;;;;;;;;;;4993114;28;20038;-62
2022/08/29 03:12:54;;;;;;;6.38;2.70;;;;;;;;;;4987911;28;20701;-62
2022/08/29 03:15:21;;;;;;;7.22;2.45;;;;;;;;;;4993129;28;20529;-63
2022/08/29 03:17:46;;;;;;;5.75;2.45;;;;;;;;;;4992803;28;20062;-62
2022/08/29 03:20:14;;;;;;;5.18;2.40;;;;;;;;;;4979375;28;20117;-62
2022/08/29 03:22:40;;;;;;;9.20;2.78;;;;;;;;;;4992529;28;20041;-62
2022/08/29 03:25:06;;;;;;;4.45;2.47;;;;;;;;;;4994803;28;20054;-62
2022/08/29 03:27:33;;;;;;;5.43;2.80;;;;;;;;;;4992730;28;20403;-62
2022/08/29 03:29:58;;;;;;;5.00;2.67;;;;;;;;;;4991311;28;20382;-69
2022/08/29 03:32:25;;;;;;;4.85;2.30;;;;;;;;;;4994019;28;20038;-64
2022/08/29 03:34:51;;;;;;;4.70;2.38;;;;;;;;;;4993232;28;20038;-63
2022/08/29 03:37:16;;;;;;;7.38;2.60;;;;;;;;;;4992440;28;20391;-63
2022/08/29 03:39:42;;;;;;;5.90;2.35;;;;;;;;;;4993560;28;20105;-63
2022/08/29 03:42:07;;;;;;;4.75;2.40;;;;;;;;;;4993334;28;20454;-63
2022/08/29 03:44:35;;;;;;;7.68;2.70;;;;;;;;;;4992299;28;20030;-63
2022/08/29 03:47:01;;;;;;;4.72;2.30;;;;;;;;;;4993646;28;20035;-62
2022/08/29 03:49:26;;;;;;;5.03;2.30;;;;;;;;;;4991380;28;20386;-63
2022/08/29 03:51:52;;;;;;;5.82;2.60;;;;;;;;;;4991703;28;20062;-63
2022/08/29 03:54:18;;;;;;;5.93;2.50;;;;;;;;;;4989273;28;20046;-62
2022/08/29 03:56:44;;;;;;;6.28;2.60;;;;;;;;;;4989715;28;20041;-64
2022/08/29 03:59:10;;;;;;;6.50;2.65;;;;;;;;;;4993561;28;20483;-64
2022/08/29 04:01:36;;;;;;;7.68;3.03;;;;;;;;;;4992167;28;20057;-66
2022/08/29 04:04:01;;;;;;;6.43;2.65;;;;;;;;;;4991375;28;20547;-64
2022/08/29 04:06:27;;;;;;;6.70;2.55;;;;;;;;;;4992909;28;20031;-62
2022/08/29 04:08:53;;;;;;;8.45;2.60;;;;;;;;;;4991007;28;20084;-69
2022/08/29 04:11:22;;;;;;;6.85;2.42;;;;;;;;;;4989811;28;20120;-62
2022/08/29 04:13:48;;;;;;;5.97;2.63;;;;;;;;;;4993198;28;20152;-62
2022/08/29 04:16:17;;;;;;;6.88;2.75;;;;;;;;;;4988786;28;20053;-62
2022/08/29 04:18:42;;;;;;;7.25;2.70;;;;;;;;;;4991470;28;20375;-66
2022/08/29 04:21:08;;;;;;;4.85;2.67;;;;;;;;;;4993050;28;20494;-64
2022/08/29 04:23:35;;;;;;;7.38;2.70;;;;;;;;;;4991208;28;20034;-68
2022/08/29 04:26:01;;;;;;;4.95;2.60;;;;;;;;;;4992441;28;20038;-63
2022/08/29 04:28:27;;;;;;;5.10;2.65;;;;;;;;;;4989920;28;20504;-63
2022/08/29 04:30:52;;;;;;;5.82;2.67;;;;;;;;;;4990927;28;20042;-63
2022/08/29 04:33:20;;;;;;;5.47;2.70;;;;;;;;;;4993446;28;20042;-62
2022/08/29 04:35:45;;;;;;;6.32;2.50;;;;;;;;;;4990691;28;20034;-62
2022/08/29 04:38:11;;;;;;;7.35;2.92;;;;;;;;;;4991900;28;20057;-63
2022/08/29 04:40:39;;;;;;;7.78;2.78;;;;;;;;;;4990912;28;20042;-62
2022/08/29 04:43:05;;;;;;;6.80;3.20;;;;;;;;;;4992802;28;20027;-62
2022/08/29 04:45:32;;;;;;;8.80;3.00;;;;;;;;;;4991271;28;20037;-64
2022/08/29 04:47:57;;;;;;;7.20;2.95;;;;;;;;;;4992224;28;20879;-62
2022/08/29 04:50:23;;;;;;;6.05;2.80;;;;;;;;;;4992324;28;20646;-62
2022/08/29 04:52:51;;;;;;;5.53;2.83;;;;;;;;;;4992553;28;20038;-62
2022/08/29 04:55:19;;;;;;;6.85;3.22;;;;;;;;;;4990880;28;20069;-63
2022/08/29 04:57:45;;;;;;;5.75;3.00;;;;;;;;;;4989648;28;20070;-63
2022/08/29 05:00:15;;;;;;;7.03;2.83;;;;;;;;;;4992139;28;20065;-64
2022/08/29 05:02:45;;;;;;;6.30;3.10;;;;;;;;;;4987715;28;20065;-68
2022/08/29 05:05:13;;;;;;;8.20;3.77;;;;;;;;;;4992789;28;20038;-62
2022/08/29 05:07:38;;;;;;;7.90;3.20;;;;;;;;;;4989269;28;20060;-63
2022/08/29 05:10:08;;;;;;;6.80;3.08;;;;;;;;;;4988789;28;20065;-63
2022/08/29 05:12:34;;;;;;;10.63;3.22;;;;;;;;;;4992793;28;20083;-66
2022/08/29 05:15:00;;;;;;;6.15;2.72;;;;;;;;;;4987850;28;20031;-65
2022/08/29 05:17:26;;;;;;;8.18;2.85;;;;;;;;;;4993608;28;20041;-63
2022/08/29 05:19:52;;;;;;;5.35;2.80;;;;;;;;;;4988333;28;20034;-63
2022/08/29 05:22:19;;;;;;;5.38;2.72;;;;;;;;;;4987453;28;20031;-63
2022/08/29 05:24:45;;;;;;;10.55;3.10;;;;;;;;;;4985357;28;20065;-63
2022/08/29 05:27:13;;;;;;;7.90;3.15;;;;;;;;;;4993350;28;20041;-64
2022/08/29 05:29:41;;;;;;;5.55;2.60;;;;;;;;;;4991983;28;20065;-63
2022/08/29 05:32:09;;;;;;;10.00;2.85;;;;;;;;;;4991075;28;20034;-63
2022/08/29 05:34:35;;;;;;;7.93;2.78;;;;;;;;;;4992149;28;20030;-64
2022/08/29 05:37:03;;;;;;;6.55;2.78;;;;;;;;;;4989658;28;20176;-62
2022/08/29 05:39:29;;;;;;;6.13;2.88;;;;;;;;;;4991892;28;20170;-63
2022/08/29 05:41:55;;;;;;;10.75;3.30;;;;;;;;;;4986932;28;20030;-62
2022/08/29 05:44:21;;;;;;;5.70;2.85;;;;;;;;;;4990396;28;20053;-61
2022/08/29 05:46:47;;;;;;;6.47;3.15;;;;;;;;;;4991137;28;20513;-64
2022/08/29 05:49:13;;;;;;;9.57;3.08;;;;;;;;;;4990980;28;20026;-64
2022/08/29 05:51:39;;;;;;;7.22;3.10;;;;;;;;;;4991660;28;20033;-63
2022/08/29 05:54:06;;;;;;;9.77;3.40;;;;;;;;;;4990573;28;20042;-63
2022/08/29 05:56:31;;;;;;;7.47;3.30;;;;;;;;;;4991493;28;20031;-63
2022/08/29 05:58:57;;;;;;;5.78;2.90;;;;;;;;;;4990400;28;20046;-63
2022/08/29 06:01:25;;;;;;;7.90;3.20;;;;;;;;;;4991515;28;20340;-64
2022/08/29 06:03:51;;;;;;;9.68;3.58;;;;;;;;;;4989211;28;20567;-64
2022/08/29 06:06:22;;;;;;;8.52;3.33;;;;;;;;;;4991425;28;20041;-63
2022/08/29 06:08:48;;;;;;;11.20;3.75;;;;;;;;;;4989483;28;20034;-64
2022/08/29 06:11:20;;;;;;;11.23;3.88;;;;;;;;;;4987396;28;20086;-61
2022/08/29 06:13:46;;;;;;;12.55;3.60;;;;;;;;;;4989721;28;20044;-61
2022/08/29 06:16:17;;;;;;;7.43;3.67;;;;;;;;;;4991359;28;20034;-61
2022/08/29 06:18:42;;;;;;;;;;;;;;;;;;4990040;28;20026;-62
2022/08/29 06:21:10;;;;;;;15.60;3.42;;;;;;;;;;4991580;28;19916;-61
2022/08/29 06:23:36;;;;;;;5.80;3.13;;;;;;;;;;4991850;28;20378;-61
2022/08/29 06:26:02;;;;;;;7.30;3.20;;;;;;;;;;4991765;28;20027;-62
2022/08/29 06:28:29;;;;;;;7.65;3.45;;;;;;;;;;4990729;28;20061;-62
2022/08/29 06:30:55;;;;;;;9.77;3.42;;;;;;;;;;4989169;28;20034;-62
2022/08/29 06:33:21;;;;;;;6.43;3.05;;;;;;;;;;4990372;28;20523;-63
2022/08/29 06:35:46;;;;;;;7.55;3.47;;;;;;;;;;4990621;28;20038;-62
2022/08/29 06:38:11;;;;;;;9.07;3.03;;;;;;;;;;4990802;28;20030;-63
2022/08/29 06:40:37;;;;;;;6.75;3.35;;;;;;;;;;4990096;28;20395;-63
2022/08/29 06:43:02;;;;;;;7.13;3.15;;;;;;;;;;4991501;28;20049;-60
2022/08/29 06:45:28;;;;;;;8.82;3.50;;;;;;;;;;4991409;28;20045;-64
2022/08/29 06:47:53;;;;;;;6.53;3.13;;;;;;;;;;4991397;28;20069;-63
2022/08/29 06:50:18;;;;;;;7.78;3.20;;;;;;;;;;4990161;28;20463;-63
2022/08/29 06:52:44;;;;;;;7.22;3.00;;;;;;;;;;4991870;28;20033;-63
2022/08/29 06:55:13;;;;;;;8.57;3.28;;;;;;;;;;4989496;28;20490;-64
2022/08/29 06:57:44;;;;;;;12.30;3.42;;;;;;;;;;4986230;28;20420;-63
2022/08/29 07:00:12;;;;;;;7.82;3.35;;;;;;;;;;4991403;28;20038;-63
2022/08/29 07:02:38;;;;;;;8.15;3.15;;;;;;;;;;4990864;28;20422;-63
2022/08/29 07:05:04;;;;;;;10.43;3.33;;;;;;;;;;4991689;28;20084;-62
2022/08/29 07:07:30;;;;;;;7.32;2.95;;;;;;;;;;4987553;28;20026;-63
2022/08/29 07:09:55;;;;;;;9.20;3.10;;;;;;;;;;4990249;28;20482;-63
2022/08/29 07:12:22;;;;;;;8.80;3.35;;;;;;;;;;4990887;28;20161;-64
2022/08/29 07:14:48;;;;;;;8.43;3.13;;;;;;;;;;4991548;28;20455;-63
2022/08/29 07:17:13;;;;;;;11.20;3.20;;;;;;;;;;4990821;28;20061;-62
2022/08/29 07:19:38;;;;;;;7.32;3.08;;;;;;;;;;4979979;28;20058;-62
2022/08/29 07:22:05;;;;;;;10.85;3.20;;;;;;;;;;4984064;28;20038;-63
2022/08/29 07:24:31;;;;;;;8.57;3.25;;;;;;;;;;4989000;28;20089;-62
2022/08/29 07:26:56;;;;;;;8.80;3.45;;;;;;;;;;4987159;28;20030;-63
2022/08/29 07:29:22;;;;;;;9.15;3.40;;;;;;;;;;4991440;28;20022;-64
2022/08/29 07:31:47;;;;;;;8.75;3.30;;;;;;;;;;4989828;28;20030;-62
2022/08/29 07:34:14;;;;;;;6.85;2.80;;;;;;;;;;4991549;28;20419;-62
2022/08/29 07:36:39;;;;;;;8.60;3.17;;;;;;;;;;4990769;28;20057;-62
2022/08/29 07:39:08;;;;;;;7.95;3.17;;;;;;;;;;4989507;28;20081;-61
2022/08/29 07:41:34;;;;;;;7.55;3.20;;;;;;;;;;4988911;28;20113;-61
2022/08/29 07:43:59;;;;;;;8.77;2.70;;;;;;;;;;4989477;28;20122;-62
2022/08/29 07:46:25;;;;;;;8.25;3.30;;;;;;;;;;4992089;28;20390;-62
2022/08/29 07:48:51;;;;;;;6.45;2.90;;;;;;;;;;4992510;28;20030;-63
2022/08/29 07:51:20;;;;;;;7.70;3.10;;;;;;;;;;4994416;28;20042;-62
2022/08/29 07:53:45;;;;;;;7.85;3.05;;;;;;;;;;4993361;28;20081;-62
2022/08/29 07:56:15;;;;;;;8.63;2.90;;;;;;;;;;4992861;28;20038;-61
2022/08/29 07:58:41;;;;;;;6.18;2.85;;;;;;;;;;4993348;28;20119;-62
2022/08/29 08:01:07;;;;;;;9.50;2.72;;;;;;;;;;4993853;28;20060;-61
2022/08/29 08:03:33;;;;;;;8.45;2.88;;;;;;;;;;4992803;28;20027;-60
2022/08/29 08:05:59;;;;;;;8.25;3.20;;;;;;;;;;4993761;28;20042;-63
2022/08/29 08:08:24;;;;;;;8.43;2.90;;;;;;;;;;4994032;28;20034;-61
2022/08/29 08:10:50;;;;;;;9.18;3.15;;;;;;;;;;4993384;28;20030;-63
2022/08/29 08:13:16;;;;;;;6.97;2.72;;;;;;;;;;4991540;28;20046;-62
2022/08/29 08:15:41;;;;;;;7.55;2.45;;;;;;;;;;4994925;28;20109;-60
2022/08/29 08:18:07;;;;;;;7.28;2.53;;;;;;;;;;4992377;28;20185;-63
2022/08/29 08:20:33;;;;;;;7.10;2.80;;;;;;;;;;4990086;28;20459;-61
2022/08/29 08:22:59;;;;;;;7.20;2.65;;;;;;;;;;4990521;28;20042;-60
2022/08/29 08:25:25;;;;;;;5.88;2.42;;;;;;;;;;4993081;28;20026;-61
2022/08/29 08:27:51;;;;;;;10.00;2.72;;;;;;;;;;4994298;28;20113;-65
2022/08/29 08:30:17;;;;;;;8.35;2.40;;;;;;;;;;4993136;28;20084;-63
2022/08/29 08:32:43;;;;;;;6.30;2.47;;;;;;;;;;4993857;28;20038;-63
2022/08/29 08:35:10;;;;;;;5.95;2.45;;;;;;;;;;4992576;28;20886;-63
2022/08/29 08:37:35;;;;;;;6.50;2.95;;;;;;;;;;4991619;28;20066;-63
2022/08/29 08:40:01;;;;;;;6.30;2.33;;;;;;;;;;4992128;28;20065;-63
2022/08/29 08:42:43;;;;;;;8.88;2.63;;;;;;;;;;4994359;28;20459;-63
2022/08/29 08:45:15;;;;;;;7.13;2.67;;;;;;;;;;4990358;28;20034;-61
2022/08/29 08:47:57;;;;;;;6.20;2.50;;;;;;;;;;4994345;28;20116;-61
2022/08/29 08:50:29;;;;;;;6.95;2.92;;;;;;;;;;4992679;28;20113;-62
2022/08/29 08:52:58;;;;;;;9.00;2.35;;;;;;;;;;4993461;28;20116;-63
2022/08/29 08:55:38;;;;;;;7.93;2.70;;;;;;;;;;4992726;28;20034;-63
2022/08/29 08:58:24;;;;;;;8.63;3.30;;;;;;;;;;5005441;28;20062;-62
2022/08/29 09:00:57;;;;;;;10.32;2.88;;;;;;;;;;4992587;28;20635;-63
2022/08/29 09:03:50;;;;;;;6.78;2.60;;;;;;;;;;4993322;28;20468;-63
2022/08/29 09:06:43;;;;;;;8.00;2.40;;;;;;;;;;4993328;28;20031;-62
2022/08/29 09:09:28;;;;;;;7.30;2.88;;;;;;;;;;4989495;28;20041;-62
2022/08/29 09:12:05;;;;;;;4.53;2.17;;;;;;;;;;4992160;28;20037;-62
2022/08/29 09:14:58;;;;;;;12.90;3.03;;;;;;;;;;4993615;28;20460;-63
2022/08/29 09:17:35;;;;;;;8.95;3.08;;;;;;;;;;4993431;28;20406;-61
2022/08/29 09:20:02;;;;;;;15.55;2.80;;;;;;;;;;4981395;28;20089;-64
2022/08/29 09:22:30;;;;;;;5.95;2.50;;;;;;;;;;4993561;28;20109;-63
2022/08/29 09:25:02;;;;;;;7.70;2.53;;;;;;;;;;4991156;28;20042;-64
2022/08/29 09:27:30;;;;;;;5.60;2.97;;;;;;;;;;4990847;28;20080;-64
2022/08/29 09:30:01;;;;;;;8.43;2.67;;;;;;;;;;4991997;28;20121;-63
2022/08/29 09:32:26;;;;;;;6.53;2.65;;;;;;;;;;4993538;28;20065;-62
2022/08/29 09:34:51;;;;;;;5.45;2.67;;;;;;;;;;4991503;28;20034;-62
2022/08/29 09:37:22;;;;;;;5.55;2.60;;;;;;;;;;4992234;28;20034;-62
2022/08/29 09:40:05;;;;;;;10.88;2.88;;;;;;;;;;4991730;28;20038;-63
2022/08/29 09:42:34;;;;;;;6.97;2.67;;;;;;;;;;4990160;28;20036;-61
2022/08/29 09:45:06;;;;;;;9.38;2.75;;;;;;;;;;4991178;28;20037;-62
2022/08/29 09:47:32;;;;;;;6.32;3.05;;;;;;;;;;4992138;28;20081;-60
2022/08/29 09:50:16;;;;;;;8.00;3.20;;;;;;;;;;4990066;28;20042;-62
2022/08/29 09:53:03;;;;;;;7.53;2.85;;;;;;;;;;4991443;28;20038;-62
2022/08/29 09:55:41;;;;;;;7.60;2.80;;;;;;;;;;4990937;28;20034;-60
2022/08/29 09:58:17;;;;;;;10.35;3.20;;;;;;;;;;4991321;28;20065;-61
2022/08/29 10:00:59;;;;;;;7.43;2.90;;;;;;;;;;4992591;28;20034;-63
2022/08/29 10:03:25;;;;;;;11.65;3.28;;;;;;;;;;4981185;28;20633;-61
2022/08/29 10:06:07;;;;;;;6.40;2.83;;;;;;;;;;4989731;28;20026;-62
2022/08/29 10:08:35;;;;;;;7.75;2.92;;;;;;;;;;4990343;28;20034;-62
2022/08/29 10:11:05;;;;;;;10.60;2.85;;;;;;;;;;4990471;28;20467;-64
2022/08/29 10:13:46;;;;;;;10.90;2.90;;;;;;;;;;4991463;28;20032;-61
2022/08/29 10:16:19;;;;;;;7.70;3.00;;;;;;;;;;4991076;28;20100;-60
2022/08/29 10:18:49;;;;;;;8.63;2.80;;;;;;;;;;4986949;28;20037;-61
2022/08/29 10:21:33;;;;;;;9.18;3.00;;;;;;;;;;4972199;28;20045;-61
2022/08/29 10:24:02;;;;;;;7.95;3.10;;;;;;;;;;4987929;28;20085;-65
2022/08/29 10:26:43;;;;;;;14.83;4.10;;;;;;;;;;4992566;28;20037;-61
2022/08/29 10:29:27;;;;;;;7.07;3.00;;;;;;;;;;4990349;28;20275;-62
2022/08/29 10:32:28;;;;;;;8.38;3.25;;;;;;;;;;4991538;28;20422;-62
2022/08/29 10:35:04;;;;;;;9.77;3.30;;;;;;;;;;4989969;28;20022;-61
2022/08/29 10:37:59;;;;;;;8.82;3.28;;;;;;;;;;4991469;28;20030;-63
2022/08/29 10:40:29;;;;;;;8.35;3.40;;;;;;;;;;4991428;28;20050;-61
2022/08/29 10:43:10;;;;;;;;;;;;;;;;;;4991533;28;20118;-60
2022/08/29 10:45:56;;;;;;;8.60;2.83;;;;;;;;;;4992749;28;20024;-61
2022/08/29 10:49:06;;;;;;;8.27;3.20;;;;;;;;;;4988656;28;20058;-63
2022/08/29 10:52:10;;;;;;;8.90;3.33;;;;;;;;;;4984679;28;20162;-63
2022/08/29 10:54:41;;;;;;;7.30;3.05;;;;;;;;;;4972896;28;20218;-62
2022/08/29 10:57:08;;;;;;;11.23;4.30;;;;;;;;;;4986613;28;20447;-62
2022/08/29 10:59:52;;;;;;;8.32;3.15;;;;;;;;;;4990582;28;20050;-64
2022/08/29 11:02:29;;;;;;;7.10;2.90;;;;;;;;;;4977775;28;20632;-61
2022/08/29 11:05:00;;;;;;;8.05;3.03;;;;;;;;;;4977972;28;20027;-63
2022/08/29 11:07:55;;;;;;;;;;;;;;;;;;4991812;28;20038;-62
2022/08/29 11:10:26;;;;;;;9.18;3.10;;;;;;;;;;4984467;28;19913;-62
2022/08/29 11:13:00;;;;;;;6.55;3.22;;;;;;;;;;4972212;28;20427;-63
2022/08/29 11:15:34;;;;;;;10.05;3.10;;;;;;;;;;4987314;28;20033;-62
2022/08/29 11:18:08;;;;;;;8.80;3.30;;;;;;;;;;4985363;28;20038;-65
2022/08/29 11:20:39;;;;;;;5.18;2.67;;;;;;;;;;4986313;28;20038;-62
2022/08/29 11:23:11;;;;;;;6.05;2.95;;;;;;;;;;4989773;28;20034;-63
2022/08/29 11:25:40;;;;;;;9.55;3.05;;;;;;;;;;4984910;28;20034;-63
2022/08/29 11:28:18;;;;;;;7.25;2.90;;;;;;;;;;4993711;28;20097;-61
2022/08/29 11:31:37;;;;;;;6.25;2.80;;;;;;;;;;4991287;28;20031;-63
2022/08/29 11:34:21;;;;;;;7.53;2.90;;;;;;;;;;4932119;29;20040;-64
2022/08/29 11:36:49;;;;;;;6.25;3.10;;;;;;;;;;4994056;28;20542;-63
2022/08/29 11:39:26;;;;;;;5.47;3.00;;;;;;;;;;4994300;28;20026;-64
2022/08/29 11:41:54;;;;;;;11.02;2.90;;;;;;;;;;4993114;28;20124;-65
2022/08/29 11:44:29;;;;;;;7.15;3.10;;;;;;;;;;4993364;28;20030;-63
2022/08/29 11:46:55;;;;;;;5.13;2.83;;;;;;;;;;4993406;28;20499;-64
2022/08/29 11:49:24;;;;;;;7.45;2.70;;;;;;;;;;4993321;28;20030;-67
2022/08/29 11:51:54;;;;;;;9.88;3.10;;;;;;;;;;4993088;28;20041;-62
2022/08/29 11:54:22;;;;;;;6.38;2.65;;;;;;;;;;4990846;28;20720;-61
2022/08/29 11:57:09;;;;;;;8.07;3.25;;;;;;;;;;5008050;28;20084;-61
2022/08/29 11:59:55;;;;;;;5.88;3.05;;;;;;;;;;4964377;28;20050;-62
2022/08/29 12:02:26;;;;;;;7.75;3.10;;;;;;;;;;4992763;28;20077;-61
2022/08/29 12:05:07;;;;;;;5.55;3.13;;;;;;;;;;4986642;28;20064;-60
2022/08/29 12:07:51;;;;;;;9.77;3.33;;;;;;;;;;4993123;28;20133;-61
2022/08/29 12:10:22;;;;;;;8.82;3.20;;;;;;;;;;4993043;28;20026;-62
2022/08/29 12:13:05;;;;;;;8.02;3.10;;;;;;;;;;4994738;28;20058;-62
2022/08/29 12:15:31;;;;;;;6.53;2.90;;;;;;;;;;4993395;28;20038;-62
2022/08/29 12:18:11;;;;;;;5.28;2.95;;;;;;;;;;4993879;28;20088;-62
2022/08/29 12:20:46;;;;;;;9.88;3.10;;;;;;;;;;4993388;28;20069;-62
2022/08/29 12:23:11;;;;;;;7.45;2.88;;;;;;;;;;4992894;28;20101;-63
2022/08/29 12:25:55;;;;;;;5.05;2.70;;;;;;;;;;4988190;28;20027;-61
2022/08/29 12:28:20;;;;;;;8.88;3.53;;;;;;;;;;4992510;28;20116;-61
2022/08/29 12:30:50;;;;;;;8.18;3.17;;;;;;;;;;4994393;28;20395;-62
2022/08/29 12:33:41;;;;;;;6.57;3.30;;;;;;;;;;4992547;28;20387;-61
2022/08/29 12:36:26;;;;;;;7.75;3.20;;;;;;;;;;4992177;28;20129;-63
2022/08/29 12:39:16;;;;;;;7.00;3.35;;;;;;;;;;4991711;28;20057;-64
2022/08/29 12:41:49;;;;;;;;;;;;;;;;;;4993503;28;20170;-64
2022/08/29 12:44:21;;;;;;;5.90;3.03;;;;;;;;;;4992079;28;20008;-63
2022/08/29 12:46:50;;;;;;;5.90;3.10;;;;;;;;;;4989711;28;20038;-62
2022/08/29 12:49:25;;;;;;;9.77;3.60;;;;;;;;;;4992404;28;20034;-62
2022/08/29 12:52:28;;;;;;;7.90;3.65;;;;;;;;;;4992170;28;20364;-62
2022/08/29 12:54:56;;;;;;;7.38;3.08;;;;;;;;;;4992921;28;20046;-62
2022/08/29 12:57:28;;;;;;;8.30;3.00;;;;;;;;;;4986916;28;20030;-63
2022/08/29 12:59:55;;;;;;;7.15;2.88;;;;;;;;;;4991161;28;20046;-62
2022/08/29 13:02:23;;;;;;;7.22;3.20;;;;;;;;;;4979036;28;20027;-61
2022/08/29 13:04:48;;;;;;;7.15;2.85;;;;;;;;;;4985597;28;20109;-62
2022/08/29 13:07:17;;;;;;;7.15;2.92;;;;;;;;;;4985456;28;20161;-65
2022/08/29 13:09:50;;;;;;;6.07;3.05;;;;;;;;;;4994063;28;20486;-65
2022/08/29 13:12:30;;;;;;;7.00;3.10;;;;;;;;;;4992442;28;20043;-63
2022/08/29 13:15:02;;;;;;;6.63;3.10;;;;;;;;;;4992362;28;20064;-64
2022/08/29 13:17:46;;;;;;;7.90;3.08;;;;;;;;;;4990085;28;20046;-62
2022/08/29 13:20:36;;;;;;;5.82;2.75;;;;;;;;;;4991417;28;20038;-63
2022/08/29 13:23:10;;;;;;;7.22;3.28;;;;;;;;;;4973651;28;20034;-65
2022/08/29 13:26:04;;;;;;;5.88;3.20;;;;;;;;;;4983518;28;20471;-62
2022/08/29 13:28:34;;;;;;;11.45;3.60;;;;;;;;;;4965872;28;20050;-65
2022/08/29 13:31:02;;;;;;;7.72;2.90;;;;;;;;;;4989678;28;20041;-63
2022/08/29 13:33:28;;;;;;;6.28;2.92;;;;;;;;;;4990126;28;20065;-66
2022/08/29 13:35:53;;;;;;;7.40;2.80;;;;;;;;;;4990955;28;20069;-65
2022/08/29 13:38:20;;;;;;;7.00;3.10;;;;;;;;;;4988449;28;20109;-63
2022/08/29 13:40:47;;;;;;;7.63;2.72;;;;;;;;;;4991381;28;20038;-64
2022/08/29 13:43:40;;;;;;;6.32;2.70;;;;;;;;;;4990670;28;20038;-60
2022/08/29 13:46:11;;;;;;;5.93;2.70;;;;;;;;;;4990995;28;21367;-65
2022/08/29 13:48:38;;;;;;;7.57;2.65;;;;;;;;;;4986890;28;20046;-65
2022/08/29 13:51:04;;;;;;;10.63;2.80;;;;;;;;;;4991082;28;20066;-67
2022/08/29 13:53:30;;;;;;;6.15;2.60;;;;;;;;;;4991750;28;20062;-64
2022/08/29 13:55:58;;;;;;;6.40;2.42;;;;;;;;;;4991266;28;20026;-67
2022/08/29 13:58:25;;;;;;;5.85;2.67;;;;;;;;;;4989845;28;20061;-65
2022/08/29 14:00:52;;;;;;;4.72;2.70;;;;;;;;;;4992950;28;20057;-64
2022/08/29 14:03:18;;;;;;;7.15;2.72;;;;;;;;;;4988588;28;20057;-66
2022/08/29 14:05:44;;;;;;;7.55;2.72;;;;;;;;;;4978486;28;20149;-64
2022/08/29 14:08:10;;;;;;;6.63;2.65;;;;;;;;;;4986873;28;20578;-65
2022/08/29 14:10:36;;;;;;;7.63;2.60;;;;;;;;;;4990459;28;20034;-64
2022/08/29 14:13:03;;;;;;;5.43;2.60;;;;;;;;;;4990327;28;20096;-67
2022/08/29 14:15:28;;;;;;;9.63;3.10;;;;;;;;;;4992291;28;20116;-63
2022/08/29 14:17:54;;;;;;;8.10;2.90;;;;;;;;;;4990137;28;21255;-63
2022/08/29 14:20:20;;;;;;;8.10;3.15;;;;;;;;;;4990174;28;20655;-63
2022/08/29 14:22:46;;;;;;;6.07;2.80;;;;;;;;;;4989843;28;20034;-63
2022/08/29 14:25:13;;;;;;;6.90;2.58;;;;;;;;;;4988404;28;20084;-63
2022/08/29 14:27:39;;;;;;;6.80;2.58;;;;;;;;;;4992007;28;20040;-63
2022/08/29 14:30:07;;;;;;;6.68;2.63;;;;;;;;;;4991054;28;20030;-64
2022/08/29 14:32:33;;;;;;;6.20;2.50;;;;;;;;;;4991621;28;20120;-63
2022/08/29 14:34:58;;;;;;;5.13;2.50;;;;;;;;;;4990654;28;20098;-64
2022/08/29 14:37:23;;;;;;;4.95;2.22;;;;;;;;;;4989852;28;20041;-63
2022/08/29 14:39:49;;;;;;;4.03;2.33;;;;;;;;;;4990271;28;20038;-63
2022/08/29 14:42:14;;;;;;;4.30;2.50;;;;;;;;;;4990932;28;20034;-65
2022/08/29 14:44:40;;;;;;;5.45;2.58;;;;;;;;;;4991650;28;20482;-63
2022/08/29 14:47:05;;;;;;;5.80;2.60;;;;;;;;;;4991002;28;20037;-65
2022/08/29 14:49:31;;;;;;;6.25;2.47;;;;;;;;;;4990954;28;20509;-63
2022/08/29 14:51:57;;;;;;;7.15;2.90;;;;;;;;;;4991923;28;20080;-63
2022/08/29 14:54:23;;;;;;;5.55;2.35;;;;;;;;;;4990350;28;20034;-63
2022/08/29 14:56:49;;;;;;;4.45;2.53;;;;;;;;;;4983679;28;20109;-63
2022/08/29 14:59:15;;;;;;;4.93;2.40;;;;;;;;;;4984547;28;20173;-65